East Brookfield, Massachusetts
Current Conditions -  °F | °C
As of 11:54 PM on Wednesday 22 Oct 2014 (Local Time) from KORH Reporting Station
Light Rain Light Rain  
Wind Chill: 38°   Ceiling: 600
Heat Index: 45°   Visibility: 3mi
Dew Point: 44°   Wind: 16mph
Humidity: 97%   Direction: 20°NNE
Pressure: 29.81"   Gusts: 33mph
Location:  42.23°N, 72.05°W
Report Text: KORH 230354Z AUTO 02014G29KT 3SM -RA BR BKN006 OVC013 07/07 A2981 RMK AO2 PK WND 04032/0302 SFC VIS 5 CIG 004V008 SLP099 P0016 T00720067
Loading
Personal Weather Stations






























Interactive Weather Map
Tropical Storm Tracking
New forecast layout! Learn more

10-Day Weather Forecast

Advertisements
Track Severe Weather on mobile